sensor_id;sensor_type;location;lat;lon;timestamp;pressure;altitude;pressure_sealevel;temperature;humidity
63405;BME280;49541;57.840;12.306;2023-05-09T00:02:20;101547.59;;;10.88;49.29
63405;BME280;49541;57.840;12.306;2023-05-09T00:07:21;101544.72;;;10.91;49.13
63405;BME280;49541;57.840;12.306;2023-05-09T00:12:21;101542.66;;;10.94;48.82
63405;BME280;49541;57.840;12.306;2023-05-09T00:17:24;101538.81;;;10.98;48.90
63405;BME280;49541;57.840;12.306;2023-05-09T00:22:24;101543.25;;;10.74;49.71
63405;BME280;49541;57.840;12.306;2023-05-09T00:27:24;101539.47;;;10.89;49.26
63405;BME280;49541;57.840;12.306;2023-05-09T00:32:25;101535.00;;;10.53;49.38
63405;BME280;49541;57.840;12.306;2023-05-09T00:37:25;101534.03;;;10.54;49.51
63405;BME280;49541;57.840;12.306;2023-05-09T00:42:25;101527.28;;;10.37;49.68
63405;BME280;49541;57.840;12.306;2023-05-09T00:47:28;101520.31;;;10.21;49.01
63405;BME280;49541;57.840;12.306;2023-05-09T00:52:29;101523.22;;;9.93;49.83
63405;BME280;49541;57.840;12.306;2023-05-09T00:57:29;101516.91;;;10.19;49.52
63405;BME280;49541;57.840;12.306;2023-05-09T01:02:29;101518.94;;;10.29;49.52
63405;BME280;49541;57.840;12.306;2023-05-09T01:07:42;101519.56;;;10.45;48.11
63405;BME280;49541;57.840;12.306;2023-05-09T01:17:54;101502.16;;;9.77;49.27
63405;BME280;49541;57.840;12.306;2023-05-09T01:23:00;101498.53;;;9.78;50.19
63405;BME280;49541;57.840;12.306;2023-05-09T01:28:11;101498.53;;;9.78;50.00
63405;BME280;49541;57.840;12.306;2023-05-09T01:33:13;101501.59;;;9.72;49.64
63405;BME280;49541;57.840;12.306;2023-05-09T01:38:16;101488.31;;;9.84;49.60
63405;BME280;49541;57.840;12.306;2023-05-09T01:43:17;101483.94;;;9.45;49.77
63405;BME280;49541;57.840;12.306;2023-05-09T01:48:18;101477.19;;;9.27;50.77
63405;BME280;49541;57.840;12.306;2023-05-09T01:53:21;101472.56;;;9.56;50.53
63405;BME280;49541;57.840;12.306;2023-05-09T01:58:21;101465.97;;;9.49;50.15
63405;BME280;49541;57.840;12.306;2023-05-09T02:03:22;101465.63;;;9.40;50.65
63405;BME280;49541;57.840;12.306;2023-05-09T02:08:23;101472.22;;;8.95;50.23
63405;BME280;49541;57.840;12.306;2023-05-09T02:13:24;101467.84;;;8.94;51.04
63405;BME280;49541;57.840;12.306;2023-05-09T02:18:24;101453.38;;;9.12;50.72
63405;BME280;49541;57.840;12.306;2023-05-09T02:23:24;101446.16;;;9.14;50.05
63405;BME280;49541;57.840;12.306;2023-05-09T02:28:24;101438.25;;;9.00;51.06
63405;BME280;49541;57.840;12.306;2023-05-09T02:33:26;101444.31;;;9.02;50.04
63405;BME280;49541;57.840;12.306;2023-05-09T02:38:27;101425.59;;;9.04;50.81
63405;BME280;49541;57.840;12.306;2023-05-09T02:43:27;101422.91;;;8.91;50.60
63405;BME280;49541;57.840;12.306;2023-05-09T02:48:27;101420.84;;;8.81;51.69
63405;BME280;49541;57.840;12.306;2023-05-09T02:53:27;101416.59;;;9.19;50.03
63405;BME280;49541;57.840;12.306;2023-05-09T02:58:27;101418.84;;;8.85;50.50
63405;BME280;49541;57.840;12.306;2023-05-09T03:03:28;101414.56;;;8.70;51.53
63405;BME280;49541;57.840;12.306;2023-05-09T03:08:28;101407.44;;;9.74;49.29
63405;BME280;49541;57.840;12.306;2023-05-09T03:13:29;101406.09;;;9.30;49.52
63405;BME280;49541;57.840;12.306;2023-05-09T03:18:29;101404.44;;;9.02;50.30
63405;BME280;49541;57.840;12.306;2023-05-09T03:23:29;101399.13;;;8.89;51.04
63405;BME280;49541;57.840;12.306;2023-05-09T03:28:29;101394.47;;;9.06;50.76
63405;BME280;49541;57.840;12.306;2023-05-09T03:33:30;101395.03;;;8.84;50.12
63405;BME280;49541;57.840;12.306;2023-05-09T03:38:30;101382.75;;;8.82;51.90
63405;BME280;49541;57.840;12.306;2023-05-09T03:43:30;101379.00;;;8.72;51.08
63405;BME280;49541;57.840;12.306;2023-05-09T03:48:30;101373.41;;;8.90;51.47
63405;BME280;49541;57.840;12.306;2023-05-09T03:53:30;101374.09;;;9.19;50.15
63405;BME280;49541;57.840;12.306;2023-05-09T03:58:30;101372.69;;;9.26;50.65
63405;BME280;49541;57.840;12.306;2023-05-09T04:03:31;101368.97;;;9.29;49.36
63405;BME280;49541;57.840;12.306;2023-05-09T04:08:31;101370.03;;;9.26;50.62
63405;BME280;49541;57.840;12.306;2023-05-09T04:13:32;101367.06;;;9.69;49.24
63405;BME280;49541;57.840;12.306;2023-05-09T04:18:32;101376.00;;;9.42;49.96
63405;BME280;49541;57.840;12.306;2023-05-09T04:23:33;101370.16;;;9.37;50.45
63405;BME280;49541;57.840;12.306;2023-05-09T04:28:33;101370.66;;;10.18;48.94
63405;BME280;49541;57.840;12.306;2023-05-09T04:33:34;101367.03;;;9.82;49.96
63405;BME280;49541;57.840;12.306;2023-05-09T04:38:35;101365.84;;;10.23;48.50
63405;BME280;49541;57.840;12.306;2023-05-09T04:43:35;101370.41;;;10.34;48.49
63405;BME280;49541;57.840;12.306;2023-05-09T04:48:35;101362.78;;;10.53;47.93
63405;BME280;49541;57.840;12.306;2023-05-09T04:53:35;101364.28;;;10.93;47.70
63405;BME280;49541;57.840;12.306;2023-05-09T04:58:36;101354.69;;;10.90;47.15
63405;BME280;49541;57.840;12.306;2023-05-09T05:03:37;101358.72;;;11.07;47.49
63405;BME280;49541;57.840;12.306;2023-05-09T05:08:37;101361.09;;;11.45;46.20
63405;BME280;49541;57.840;12.306;2023-05-09T05:13:37;101351.16;;;11.25;46.11
63405;BME280;49541;57.840;12.306;2023-05-09T05:18:38;101356.84;;;11.43;46.75
63405;BME280;49541;57.840;12.306;2023-05-09T05:23:38;101351.53;;;11.77;46.28
63405;BME280;49541;57.840;12.306;2023-05-09T05:28:38;101344.34;;;12.00;45.80
63405;BME280;49541;57.840;12.306;2023-05-09T05:33:38;101339.69;;;12.24;45.32
63405;BME280;49541;57.840;12.306;2023-05-09T05:38:38;101321.59;;;12.28;45.13
63405;BME280;49541;57.840;12.306;2023-05-09T05:43:38;101316.72;;;12.33;45.45
63405;BME280;49541;57.840;12.306;2023-05-09T05:48:39;101316.75;;;12.86;43.73
63405;BME280;49541;57.840;12.306;2023-05-09T05:53:39;101311.34;;;13.07;43.56
63405;BME280;49541;57.840;12.306;2023-05-09T05:58:39;101304.78;;;13.11;43.85
63405;BME280;49541;57.840;12.306;2023-05-09T06:03:40;101299.16;;;13.36;43.07
63405;BME280;49541;57.840;12.306;2023-05-09T06:08:40;101298.78;;;13.40;42.88
63405;BME280;49541;57.840;12.306;2023-05-09T06:13:40;101293.16;;;13.43;43.04
63405;BME280;49541;57.840;12.306;2023-05-09T06:18:40;101294.56;;;13.47;43.25
63405;BME280;49541;57.840;12.306;2023-05-09T06:23:40;101303.19;;;13.51;43.13
63405;BME280;49541;57.840;12.306;2023-05-09T06:28:40;101293.81;;;13.76;42.94
63405;BME280;49541;57.840;12.306;2023-05-09T06:33:41;101287.50;;;13.87;42.38
63405;BME280;49541;57.840;12.306;2023-05-09T06:38:41;101282.56;;;13.82;42.83
63405;BME280;49541;57.840;12.306;2023-05-09T06:43:41;101283.31;;;14.04;42.83
63405;BME280;49541;57.840;12.306;2023-05-09T06:48:41;101281.34;;;14.25;41.87
63405;BME280;49541;57.840;12.306;2023-05-09T06:53:41;101269.94;;;14.13;42.18
63405;BME280;49541;57.840;12.306;2023-05-09T06:58:41;101270.19;;;14.10;42.68
63405;BME280;49541;57.840;12.306;2023-05-09T07:03:42;101272.31;;;14.36;42.34
63405;BME280;49541;57.840;12.306;2023-05-09T07:08:42;101270.94;;;14.61;42.23
63405;BME280;49541;57.840;12.306;2023-05-09T07:13:42;101247.50;;;14.53;41.40
63405;BME280;49541;57.840;12.306;2023-05-09T07:18:43;101250.47;;;14.60;41.84
63405;BME280;49541;57.840;12.306;2023-05-09T07:23:43;101249.19;;;14.54;42.44
63405;BME280;49541;57.840;12.306;2023-05-09T07:28:43;101245.97;;;14.70;41.68
63405;BME280;49541;57.840;12.306;2023-05-09T07:33:43;101236.84;;;15.01;40.77
63405;BME280;49541;57.840;12.306;2023-05-09T07:38:44;101233.69;;;15.15;40.54
63405;BME280;49541;57.840;12.306;2023-05-09T07:43:46;101221.34;;;15.32;40.05
63405;BME280;49541;57.840;12.306;2023-05-09T07:48:47;101218.75;;;15.40;40.63
63405;BME280;49541;57.840;12.306;2023-05-09T07:53:47;101206.56;;;15.73;40.01
63405;BME280;49541;57.840;12.306;2023-05-09T07:58:47;101192.94;;;16.03;39.06
63405;BME280;49541;57.840;12.306;2023-05-09T08:03:48;101185.59;;;16.05;38.43
63405;BME280;49541;57.840;12.306;2023-05-09T08:08:48;101173.25;;;16.38;37.25
63405;BME280;49541;57.840;12.306;2023-05-09T08:13:48;101163.44;;;16.55;37.61
63405;BME280;49541;57.840;12.306;2023-05-09T08:18:49;101182.47;;;17.22;37.30
63405;BME280;49541;57.840;12.306;2023-05-09T08:23:49;101181.69;;;16.95;36.85
63405;BME280;49541;57.840;12.306;2023-05-09T08:28:49;101178.28;;;17.19;35.17
63405;BME280;49541;57.840;12.306;2023-05-09T08:33:49;101154.66;;;17.05;35.52
63405;BME280;49541;57.840;12.306;2023-05-09T08:38:50;101163.56;;;17.56;35.73
63405;BME280;49541;57.840;12.306;2023-05-09T08:43:50;101162.59;;;17.74;34.53
63405;BME280;49541;57.840;12.306;2023-05-09T08:48:50;101158.22;;;17.73;35.59
63405;BME280;49541;57.840;12.306;2023-05-09T08:53:51;101158.28;;;18.22;32.51
63405;BME280;49541;57.840;12.306;2023-05-09T08:58:52;101148.13;;;18.57;30.79
63405;BME280;49541;57.840;12.306;2023-05-09T09:03:53;101145.91;;;18.60;28.80
63405;BME280;49541;57.840;12.306;2023-05-09T09:08:53;101144.38;;;18.66;27.97
63405;BME280;49541;57.840;12.306;2023-05-09T09:13:54;101151.78;;;18.72;28.49
63405;BME280;49541;57.840;12.306;2023-05-09T09:18:55;101143.13;;;19.01;28.16
63405;BME280;49541;57.840;12.306;2023-05-09T09:23:57;101148.72;;;18.92;27.96
63405;BME280;49541;57.840;12.306;2023-05-09T09:28:58;101136.31;;;18.50;26.99
63405;BME280;49541;57.840;12.306;2023-05-09T09:33:58;101142.16;;;18.86;26.76
63405;BME280;49541;57.840;12.306;2023-05-09T09:38:59;101135.00;;;19.41;25.93
63405;BME280;49541;57.840;12.306;2023-05-09T09:49:11;101140.66;;;20.38;26.12
63405;BME280;49541;57.840;12.306;2023-05-09T09:54:11;101128.72;;;20.18;23.86
63405;BME280;49541;57.840;12.306;2023-05-09T09:59:16;101114.75;;;20.29;24.66
63405;BME280;49541;57.840;12.306;2023-05-09T10:04:16;101113.78;;;19.84;24.71
63405;BME280;49541;57.840;12.306;2023-05-09T10:09:16;101101.84;;;20.16;24.59
63405;BME280;49541;57.840;12.306;2023-05-09T10:14:17;101097.88;;;20.42;24.71
63405;BME280;49541;57.840;12.306;2023-05-09T10:19:18;101106.91;;;20.34;25.13
63405;BME280;49541;57.840;12.306;2023-05-09T10:24:21;101109.00;;;20.62;23.63
63405;BME280;49541;57.840;12.306;2023-05-09T10:29:22;101093.25;;;20.13;25.35
63405;BME280;49541;57.840;12.306;2023-05-09T10:34:24;101083.81;;;20.76;24.64
63405;BME280;49541;57.840;12.306;2023-05-09T10:39:25;101084.69;;;21.13;23.59
63405;BME280;49541;57.840;12.306;2023-05-09T10:44:26;101091.53;;;21.45;22.78
63405;BME280;49541;57.840;12.306;2023-05-09T10:49:26;101064.16;;;21.19;23.11
63405;BME280;49541;57.840;12.306;2023-05-09T10:54:27;101063.34;;;21.89;22.96
63405;BME280;49541;57.840;12.306;2023-05-09T11:04:35;101057.41;;;22.64;23.24
63405;BME280;49541;57.840;12.306;2023-05-09T11:09:37;101048.22;;;22.65;21.89
63405;BME280;49541;57.840;12.306;2023-05-09T11:14:42;101044.53;;;23.34;21.58
63405;BME280;49541;57.840;12.306;2023-05-09T11:24:47;101032.03;;;22.85;19.99
63405;BME280;49541;57.840;12.306;2023-05-09T11:34:51;101010.97;;;22.94;19.62
63405;BME280;49541;57.840;12.306;2023-05-09T11:39:58;101010.97;;;22.94;19.94
63405;BME280;49541;57.840;12.306;2023-05-09T11:44:58;101002.97;;;23.47;19.73
63405;BME280;49541;57.840;12.306;2023-05-09T11:49:58;100991.41;;;24.25;18.63
63405;BME280;49541;57.840;12.306;2023-05-09T11:54:59;101001.81;;;24.93;17.63
63405;BME280;49541;57.840;12.306;2023-05-09T11:59:59;101006.81;;;24.51;17.76
63405;BME280;49541;57.840;12.306;2023-05-09T12:05:10;100982.31;;;24.51;17.81
63405;BME280;49541;57.840;12.306;2023-05-09T12:10:11;100971.41;;;24.96;18.65
63405;BME280;49541;57.840;12.306;2023-05-09T12:15:12;100993.25;;;24.89;15.99
63405;BME280;49541;57.840;12.306;2023-05-09T12:20:13;100968.06;;;24.56;17.14
63405;BME280;49541;57.840;12.306;2023-05-09T12:25:13;100972.06;;;25.30;16.17
63405;BME280;49541;57.840;12.306;2023-05-09T12:30:13;100974.38;;;25.26;16.19
63405;BME280;49541;57.840;12.306;2023-05-09T12:35:15;100975.47;;;24.22;16.27
63405;BME280;49541;57.840;12.306;2023-05-09T12:40:15;100970.38;;;24.45;16.52
63405;BME280;49541;57.840;12.306;2023-05-09T12:45:15;100940.81;;;25.01;16.98
63405;BME280;49541;57.840;12.306;2023-05-09T12:50:15;100950.47;;;24.97;14.89
63405;BME280;49541;57.840;12.306;2023-05-09T12:55:17;100952.47;;;25.08;13.86
63405;BME280;49541;57.840;12.306;2023-05-09T13:00:17;100942.63;;;24.75;14.77
63405;BME280;49541;57.840;12.306;2023-05-09T13:05:18;100939.47;;;25.10;14.56
63405;BME280;49541;57.840;12.306;2023-05-09T13:10:19;100933.69;;;25.00;14.48
63405;BME280;49541;57.840;12.306;2023-05-09T13:15:22;100938.66;;;25.09;14.13
63405;BME280;49541;57.840;12.306;2023-05-09T13:20:22;100919.13;;;24.87;15.20
63405;BME280;49541;57.840;12.306;2023-05-09T13:25:23;100913.34;;;25.78;13.41
63405;BME280;49541;57.840;12.306;2023-05-09T13:30:23;100906.97;;;25.40;13.90
63405;BME280;49541;57.840;12.306;2023-05-09T13:35:24;100905.16;;;25.78;14.03
63405;BME280;49541;57.840;12.306;2023-05-09T13:40:24;100900.94;;;25.82;12.68
63405;BME280;49541;57.840;12.306;2023-05-09T13:45:24;100898.34;;;26.24;13.42
63405;BME280;49541;57.840;12.306;2023-05-09T13:50:25;100888.59;;;25.10;13.04
63405;BME280;49541;57.840;12.306;2023-05-09T13:55:25;100873.97;;;26.10;13.61
63405;BME280;49541;57.840;12.306;2023-05-09T14:00:26;100889.13;;;26.06;11.91
63405;BME280;49541;57.840;12.306;2023-05-09T14:05:26;100873.19;;;25.85;12.11
63405;BME280;49541;57.840;12.306;2023-05-09T14:10:26;100880.41;;;25.79;11.72
63405;BME280;49541;57.840;12.306;2023-05-09T14:15:27;100867.50;;;26.23;12.06
63405;BME280;49541;57.840;12.306;2023-05-09T14:20:28;100846.69;;;26.29;11.83
63405;BME280;49541;57.840;12.306;2023-05-09T14:25:28;100849.47;;;26.94;10.60
63405;BME280;49541;57.840;12.306;2023-05-09T14:30:29;100839.84;;;26.50;11.65
63405;BME280;49541;57.840;12.306;2023-05-09T14:35:29;100831.78;;;25.76;11.48
63405;BME280;49541;57.840;12.306;2023-05-09T14:40:31;100832.16;;;25.80;11.61
63405;BME280;49541;57.840;12.306;2023-05-09T14:45:31;100822.84;;;26.66;12.32
63405;BME280;49541;57.840;12.306;2023-05-09T14:50:32;100825.94;;;25.54;12.20
63405;BME280;49541;57.840;12.306;2023-05-09T14:55:32;100811.97;;;24.75;12.01
63405;BME280;49541;57.840;12.306;2023-05-09T15:00:32;100808.81;;;25.03;12.52
63405;BME280;49541;57.840;12.306;2023-05-09T15:05:33;100797.78;;;25.23;13.05
63405;BME280;49541;57.840;12.306;2023-05-09T15:10:33;100800.41;;;26.04;13.30
63405;BME280;49541;57.840;12.306;2023-05-09T15:15:34;100802.16;;;26.59;12.47
63405;BME280;49541;57.840;12.306;2023-05-09T15:20:37;100796.78;;;26.10;11.99
63405;BME280;49541;57.840;12.306;2023-05-09T15:25:39;100790.28;;;24.30;12.62
63405;BME280;49541;57.840;12.306;2023-05-09T15:30:39;100774.31;;;25.22;12.66
63405;BME280;49541;57.840;12.306;2023-05-09T15:35:40;100770.38;;;25.73;13.02
63405;BME280;49541;57.840;12.306;2023-05-09T15:40:41;100765.38;;;25.70;12.60
63405;BME280;49541;57.840;12.306;2023-05-09T15:45:41;100759.84;;;25.40;12.34
63405;BME280;49541;57.840;12.306;2023-05-09T15:50:45;100762.63;;;25.15;12.50
63405;BME280;49541;57.840;12.306;2023-05-09T15:55:45;100755.66;;;24.50;12.55
63405;BME280;49541;57.840;12.306;2023-05-09T16:00:45;100751.06;;;24.76;13.00
63405;BME280;49541;57.840;12.306;2023-05-09T16:05:46;100743.97;;;25.56;13.23
63405;BME280;49541;57.840;12.306;2023-05-09T16:10:46;100738.00;;;25.28;13.06
63405;BME280;49541;57.840;12.306;2023-05-09T16:15:48;100729.69;;;25.17;13.63
63405;BME280;49541;57.840;12.306;2023-05-09T16:20:48;100725.28;;;25.22;12.83
63405;BME280;49541;57.840;12.306;2023-05-09T16:25:49;100725.28;;;25.22;12.83
63405;BME280;49541;57.840;12.306;2023-05-09T16:30:49;100711.25;;;25.19;13.24
63405;BME280;49541;57.840;12.306;2023-05-09T16:35:50;100713.84;;;24.13;13.72
63405;BME280;49541;57.840;12.306;2023-05-09T16:40:50;100716.84;;;24.05;14.42
63405;BME280;49541;57.840;12.306;2023-05-09T16:45:51;100717.31;;;23.95;15.16
63405;BME280;49541;57.840;12.306;2023-05-09T16:50:51;100700.56;;;24.80;15.52
63405;BME280;49541;57.840;12.306;2023-05-09T16:55:52;100719.84;;;24.53;15.34
63405;BME280;49541;57.840;12.306;2023-05-09T17:00:53;100708.22;;;23.69;17.18
63405;BME280;49541;57.840;12.306;2023-05-09T17:05:54;100704.38;;;24.22;15.62
63405;BME280;49541;57.840;12.306;2023-05-09T17:10:54;100708.84;;;24.10;17.17
63405;BME280;49541;57.840;12.306;2023-05-09T17:15:54;100702.19;;;23.61;15.62
63405;BME280;49541;57.840;12.306;2023-05-09T17:20:55;100709.25;;;23.10;16.94
63405;BME280;49541;57.840;12.306;2023-05-09T17:25:56;100697.81;;;22.81;17.38
63405;BME280;49541;57.840;12.306;2023-05-09T17:30:56;100695.31;;;23.06;18.49
63405;BME280;49541;57.840;12.306;2023-05-09T17:35:58;100693.75;;;23.30;19.03
63405;BME280;49541;57.840;12.306;2023-05-09T17:40:58;100698.81;;;23.14;19.43
63405;BME280;49541;57.840;12.306;2023-05-09T17:45:59;100712.44;;;22.40;20.87
63405;BME280;49541;57.840;12.306;2023-05-09T17:50:59;100700.97;;;22.58;21.43
63405;BME280;49541;57.840;12.306;2023-05-09T17:55:59;100703.69;;;22.25;23.08
63405;BME280;49541;57.840;12.306;2023-05-09T18:00:59;100704.16;;;21.74;23.43
63405;BME280;49541;57.840;12.306;2023-05-09T18:05:59;100708.84;;;21.45;24.26
63405;BME280;49541;57.840;12.306;2023-05-09T18:11:00;100717.38;;;21.07;24.82
63405;BME280;49541;57.840;12.306;2023-05-09T18:16:00;100723.13;;;20.69;25.12
63405;BME280;49541;57.840;12.306;2023-05-09T18:21:01;100728.31;;;20.64;24.95
63405;BME280;49541;57.840;12.306;2023-05-09T18:26:03;100722.50;;;20.45;26.32
63405;BME280;49541;57.840;12.306;2023-05-09T18:31:04;100738.81;;;20.31;25.83
63405;BME280;49541;57.840;12.306;2023-05-09T18:36:05;100750.03;;;19.91;26.00
63405;BME280;49541;57.840;12.306;2023-05-09T18:41:08;100750.06;;;19.76;27.17
63405;BME280;49541;57.840;12.306;2023-05-09T18:46:09;100751.28;;;19.44;27.95
63405;BME280;49541;57.840;12.306;2023-05-09T18:51:09;100748.03;;;19.04;27.33
63405;BME280;49541;57.840;12.306;2023-05-09T18:56:10;100752.13;;;19.30;27.48
63405;BME280;49541;57.840;12.306;2023-05-09T19:01:10;100748.84;;;19.05;27.53
63405;BME280;49541;57.840;12.306;2023-05-09T19:06:11;100744.44;;;18.51;28.11
63405;BME280;49541;57.840;12.306;2023-05-09T19:11:12;100753.34;;;18.28;28.00
63405;BME280;49541;57.840;12.306;2023-05-09T19:16:13;100752.13;;;17.85;27.77
63405;BME280;49541;57.840;12.306;2023-05-09T19:21:13;100755.81;;;17.44;29.05
63405;BME280;49541;57.840;12.306;2023-05-09T19:26:15;100752.50;;;17.34;29.05
63405;BME280;49541;57.840;12.306;2023-05-09T19:31:15;100754.53;;;17.32;28.64
63405;BME280;49541;57.840;12.306;2023-05-09T19:36:17;100757.91;;;17.17;28.58
63405;BME280;49541;57.840;12.306;2023-05-09T19:41:18;100763.00;;;17.04;29.01
63405;BME280;49541;57.840;12.306;2023-05-09T19:46:18;100767.53;;;16.71;28.96
63405;BME280;49541;57.840;12.306;2023-05-09T19:51:18;100771.72;;;16.73;28.92
63405;BME280;49541;57.840;12.306;2023-05-09T19:56:18;100770.72;;;16.33;30.10
63405;BME280;49541;57.840;12.306;2023-05-09T20:01:18;100769.69;;;16.18;30.58
63405;BME280;49541;57.840;12.306;2023-05-09T20:06:19;100776.03;;;16.01;30.96
63405;BME280;49541;57.840;12.306;2023-05-09T20:11:19;100773.34;;;16.01;30.97
63405;BME280;49541;57.840;12.306;2023-05-09T20:16:20;100780.91;;;16.05;30.97
63405;BME280;49541;57.840;12.306;2023-05-09T20:21:21;100786.69;;;15.76;31.03
63405;BME280;49541;57.840;12.306;2023-05-09T20:26:21;100781.50;;;15.74;31.39
63405;BME280;49541;57.840;12.306;2023-05-09T20:31:21;100778.19;;;15.54;31.94
63405;BME280;49541;57.840;12.306;2023-05-09T20:36:22;100782.75;;;15.28;32.27
63405;BME280;49541;57.840;12.306;2023-05-09T20:41:22;100774.97;;;15.17;32.61
63405;BME280;49541;57.840;12.306;2023-05-09T20:46:23;100770.31;;;15.19;32.19
63405;BME280;49541;57.840;12.306;2023-05-09T20:51:23;100765.88;;;14.83;33.08
63405;BME280;49541;57.840;12.306;2023-05-09T20:56:23;100768.19;;;15.04;33.55
63405;BME280;49541;57.840;12.306;2023-05-09T21:01:23;100759.72;;;14.91;33.59
63405;BME280;49541;57.840;12.306;2023-05-09T21:06:24;100761.06;;;14.69;33.42
63405;BME280;49541;57.840;12.306;2023-05-09T21:11:24;100764.97;;;14.39;34.56
63405;BME280;49541;57.840;12.306;2023-05-09T21:16:24;100756.88;;;14.30;34.31
63405;BME280;49541;57.840;12.306;2023-05-09T21:21:24;100755.53;;;14.34;34.38
63405;BME280;49541;57.840;12.306;2023-05-09T21:26:25;100752.81;;;14.26;34.00
63405;BME280;49541;57.840;12.306;2023-05-09T21:31:25;100756.25;;;14.01;34.49
63405;BME280;49541;57.840;12.306;2023-05-09T21:36:25;100754.44;;;13.91;35.29
63405;BME280;49541;57.840;12.306;2023-05-09T21:41:25;100745.78;;;13.62;35.47
63405;BME280;49541;57.840;12.306;2023-05-09T21:46:26;100745.56;;;13.73;35.50
63405;BME280;49541;57.840;12.306;2023-05-09T21:51:27;100737.53;;;13.45;35.77
63405;BME280;49541;57.840;12.306;2023-05-09T21:56:27;100735.31;;;13.68;35.43
63405;BME280;49541;57.840;12.306;2023-05-09T22:01:27;100733.69;;;13.58;35.89
63405;BME280;49541;57.840;12.306;2023-05-09T22:06:27;100734.72;;;13.47;36.09
63405;BME280;49541;57.840;12.306;2023-05-09T22:11:28;100726.00;;;13.45;36.19
63405;BME280;49541;57.840;12.306;2023-05-09T22:16:28;100722.91;;;13.40;36.24
63405;BME280;49541;57.840;12.306;2023-05-09T22:21:29;100719.47;;;13.20;36.62
63405;BME280;49541;57.840;12.306;2023-05-09T22:26:30;100724.41;;;13.15;37.07
63405;BME280;49541;57.840;12.306;2023-05-09T22:31:30;100720.09;;;13.04;36.79
63405;BME280;49541;57.840;12.306;2023-05-09T22:36:30;100713.63;;;13.06;36.53
63405;BME280;49541;57.840;12.306;2023-05-09T22:41:31;100708.16;;;12.98;37.06
63405;BME280;49541;57.840;12.306;2023-05-09T22:46:31;100713.63;;;13.06;37.13
63405;BME280;49541;57.840;12.306;2023-05-09T22:51:31;100711.75;;;12.60;37.39
63405;BME280;49541;57.840;12.306;2023-05-09T22:56:32;100713.63;;;12.40;38.59
63405;BME280;49541;57.840;12.306;2023-05-09T23:01:32;100706.72;;;12.57;38.37
63405;BME280;49541;57.840;12.306;2023-05-09T23:06:32;100699.13;;;12.42;38.28
63405;BME280;49541;57.840;12.306;2023-05-09T23:11:33;100696.47;;;12.52;38.81
63405;BME280;49541;57.840;12.306;2023-05-09T23:16:36;100688.75;;;12.29;38.53
63405;BME280;49541;57.840;12.306;2023-05-09T23:21:36;100692.97;;;12.42;37.98
63405;BME280;49541;57.840;12.306;2023-05-09T23:26:37;100690.16;;;12.34;39.52
63405;BME280;49541;57.840;12.306;2023-05-09T23:31:37;100690.31;;;12.22;38.74
63405;BME280;49541;57.840;12.306;2023-05-09T23:36:38;100688.47;;;11.94;40.20
63405;BME280;49541;57.840;12.306;2023-05-09T23:41:38;100690.31;;;12.03;39.87
63405;BME280;49541;57.840;12.306;2023-05-09T23:46:38;100687.44;;;11.75;40.41
63405;BME280;49541;57.840;12.306;2023-05-09T23:51:39;100684.25;;;11.91;40.30
63405;BME280;49541;57.840;12.306;2023-05-09T23:56:39;100679.13;;;11.59;39.92
